createdAt,value
2019-03-20T00:04:16.345Z,5.87
2019-03-20T00:09:20.022Z,6.30
2019-03-20T00:14:23.713Z,6.37
2019-03-20T00:19:27.389Z,4.97
2019-03-20T00:24:31.067Z,4.63
2019-03-20T00:29:34.749Z,2.90
2019-03-20T00:34:38.435Z,2.90
2019-03-20T00:39:42.122Z,2.93
2019-03-20T00:44:47.099Z,3.17
2019-03-20T00:49:50.832Z,3.10
2019-03-20T00:54:54.508Z,3.53
2019-03-20T00:59:58.170Z,3.13
2019-03-20T01:05:12.209Z,3.27
2019-03-20T01:10:09.027Z,3.17
2019-03-20T01:15:12.952Z,3.27
2019-03-20T01:20:17.456Z,3.57
2019-03-20T01:25:21.376Z,3.00
2019-03-20T01:30:32.091Z,3.20
2019-03-20T01:35:35.794Z,3.73
2019-03-20T01:40:40.442Z,3.40
2019-03-20T01:45:44.667Z,3.70
2019-03-20T01:50:48.649Z,3.30
2019-03-20T01:55:52.334Z,3.57
2019-03-20T02:00:56.022Z,3.47
2019-03-20T02:05:59.869Z,3.30
2019-03-20T02:11:03.641Z,3.67
2019-03-20T02:16:07.317Z,3.40
2019-03-20T02:21:11.005Z,4.30
2019-03-20T02:26:14.931Z,4.03
2019-03-20T02:31:18.649Z,3.70
2019-03-20T02:36:22.634Z,3.50
2019-03-20T02:41:26.353Z,3.57
2019-03-20T02:46:30.036Z,3.73
2019-03-20T02:51:33.706Z,3.30
2019-03-20T02:56:37.420Z,4.00
2019-03-20T03:01:41.353Z,3.50
2019-03-20T03:06:45.022Z,3.73
2019-03-20T03:11:48.690Z,3.30
2019-03-20T03:16:52.365Z,3.60
2019-03-20T03:21:56.040Z,3.60
2019-03-20T03:26:59.786Z,4.00
2019-03-20T03:32:03.481Z,3.60
2019-03-20T03:37:07.241Z,3.17
2019-03-20T03:42:10.935Z,2.80
2019-03-20T03:47:14.615Z,3.13
2019-03-20T03:52:18.630Z,3.03
2019-03-20T03:57:22.374Z,2.90
2019-03-20T04:02:26.037Z,3.10
2019-03-20T04:07:29.711Z,2.90
2019-03-20T04:12:33.397Z,2.97
2019-03-20T04:17:37.078Z,3.27
2019-03-20T04:22:40.766Z,3.30
2019-03-20T04:27:44.517Z,3.17
2019-03-20T04:32:48.718Z,3.73
2019-03-20T04:37:52.403Z,3.60
2019-03-20T04:42:56.069Z,3.00
2019-03-20T04:47:59.739Z,4.20
2019-03-20T04:53:03.413Z,4.13
2019-03-20T04:58:07.083Z,3.77
2019-03-20T05:03:10.757Z,4.43
2019-03-20T05:08:14.441Z,4.40
2019-03-20T05:13:18.349Z,4.33
2019-03-20T05:18:22.021Z,4.90
2019-03-20T05:23:25.694Z,3.90
2019-03-20T05:28:29.609Z,3.80
2019-03-20T05:33:33.263Z,3.83
2019-03-20T05:38:36.943Z,4.13
2019-03-20T05:43:40.604Z,3.70
2019-03-20T05:48:44.395Z,5.20
2019-03-20T05:53:48.094Z,4.93
2019-03-20T05:58:51.793Z,5.30
2019-03-20T06:03:55.569Z,4.47
2019-03-20T06:08:59.313Z,4.23
2019-03-20T06:14:02.985Z,4.73
2019-03-20T06:19:06.886Z,3.90
2019-03-20T06:24:10.556Z,3.47
2019-03-20T06:29:14.247Z,4.47
2019-03-20T06:34:18.069Z,10.30
2019-03-20T06:39:21.755Z,7.40
2019-03-20T06:44:25.440Z,6.73
2019-03-20T06:49:29.563Z,24.43
2019-03-20T06:54:33.307Z,5.90
2019-03-20T07:00:15.994Z,5.00
2019-03-20T07:06:01.942Z,4.17
2019-03-20T07:11:08.277Z,4.50
2019-03-20T07:16:12.128Z,4.83
2019-03-20T07:21:15.814Z,3.60
2019-03-20T07:26:19.501Z,3.53
2019-03-20T07:31:23.178Z,3.90
2019-03-20T07:36:26.912Z,3.10
2019-03-20T07:41:30.575Z,2.90
2019-03-20T07:46:35.182Z,2.87
2019-03-20T07:51:39.095Z,3.73
2019-03-20T07:56:42.778Z,11.80
2019-03-20T08:01:46.521Z,5.23
2019-03-20T08:06:50.166Z,2.60
2019-03-20T08:11:53.840Z,2.83
2019-03-20T08:16:57.573Z,3.37
2019-03-20T08:22:01.242Z,4.30
2019-03-20T08:27:04.982Z,3.20
2019-03-20T08:32:08.640Z,3.27
2019-03-20T08:37:12.313Z,3.47
2019-03-20T08:42:15.998Z,17.50
2019-03-20T08:47:19.666Z,3.93
2019-03-20T08:52:23.331Z,3.67
2019-03-20T08:57:27.006Z,3.13
2019-03-20T09:02:30.694Z,3.47
2019-03-20T09:07:34.392Z,2.87
2019-03-20T09:12:38.047Z,3.80
2019-03-20T09:17:41.751Z,3.33
2019-03-20T09:22:45.801Z,2.80
2019-03-20T09:27:49.553Z,2.80
2019-03-20T09:32:53.294Z,2.80
2019-03-20T09:37:56.973Z,2.97
2019-03-20T09:43:00.895Z,4.17
2019-03-20T09:48:04.658Z,5.57
2019-03-20T09:53:08.345Z,5.83
2019-03-20T09:58:12.165Z,6.03
2019-03-20T10:03:15.887Z,5.60
2019-03-20T10:08:19.578Z,7.00
2019-03-20T10:13:23.246Z,5.53
2019-03-20T10:18:26.932Z,7.07
2019-03-20T10:23:32.310Z,6.90
2019-03-20T10:28:35.995Z,5.43
2019-03-20T10:33:39.685Z,14.37
2019-03-20T10:38:43.706Z,13.23
2019-03-20T10:43:47.413Z,14.20
2019-03-20T10:48:51.090Z,15.47
2019-03-20T10:53:54.758Z,14.57
2019-03-20T10:58:58.454Z,14.70
2019-03-20T11:04:02.143Z,14.20
2019-03-20T11:09:17.626Z,14.17
2019-03-20T11:14:13.116Z,13.87
2019-03-20T11:19:16.846Z,13.47
2019-03-20T11:24:20.614Z,12.27
2019-03-20T11:29:25.424Z,13.07
2019-03-20T11:34:29.267Z,12.90
2019-03-20T11:39:34.627Z,13.63
2019-03-20T11:44:38.319Z,13.53
2019-03-20T11:49:42.007Z,13.27
2019-03-20T11:54:45.869Z,14.17
2019-03-20T11:59:56.532Z,13.40
2019-03-20T12:05:00.374Z,13.97
2019-03-20T12:10:12.869Z,11.97
2019-03-20T12:15:16.878Z,12.37
2019-03-20T12:20:20.715Z,12.53
2019-03-20T12:25:26.362Z,13.80
2019-03-20T12:30:30.145Z,13.50
2019-03-20T12:35:33.907Z,13.93
2019-03-20T12:40:37.680Z,12.40
2019-03-20T12:45:41.570Z,12.23
2019-03-20T12:50:45.338Z,12.40
2019-03-20T12:55:49.025Z,10.37
2019-03-20T13:00:54.512Z,11.77
2019-03-20T13:05:58.123Z,9.60
2019-03-20T13:11:01.815Z,9.70
2019-03-20T13:16:05.777Z,8.07
2019-03-20T13:21:09.521Z,7.97
2019-03-20T13:26:13.198Z,8.00
2019-03-20T13:31:19.287Z,8.43
2019-03-20T13:36:22.957Z,7.50
2019-03-20T13:41:37.074Z,7.90
2019-03-20T13:46:34.211Z,6.67
2019-03-20T13:51:37.899Z,7.40
2019-03-20T13:56:41.999Z,7.97
2019-03-20T14:01:45.718Z,7.90
2019-03-20T14:06:49.390Z,8.50
2019-03-20T14:11:53.079Z,8.00
2019-03-20T14:16:56.738Z,9.20
2019-03-20T14:22:00.427Z,7.87
2019-03-20T14:27:04.235Z,8.57
2019-03-20T14:32:08.250Z,8.30
2019-03-20T14:37:11.933Z,8.07
2019-03-20T14:42:15.614Z,7.23
2019-03-20T14:47:19.285Z,6.83
2019-03-20T14:52:22.990Z,6.40
2019-03-20T14:57:26.735Z,6.60
2019-03-20T15:02:30.477Z,6.60
2019-03-20T15:07:34.521Z,6.77
2019-03-20T15:12:38.201Z,7.17
2019-03-20T15:17:42.722Z,6.50
2019-03-20T15:22:46.651Z,6.10
2019-03-20T15:27:50.421Z,6.50
2019-03-20T15:32:54.238Z,6.90
2019-03-20T15:37:58.011Z,6.70
2019-03-20T15:43:01.717Z,7.20
2019-03-20T15:48:05.416Z,6.90
2019-03-20T15:53:09.431Z,6.80
2019-03-20T15:58:13.181Z,6.70
2019-03-20T16:03:20.032Z,6.33
2019-03-20T16:08:23.744Z,6.53
2019-03-20T16:13:27.447Z,6.50
2019-03-20T16:18:31.149Z,6.53
2019-03-20T16:23:34.856Z,5.70
2019-03-20T16:28:38.534Z,4.87
2019-03-20T16:33:42.261Z,4.87
2019-03-20T16:38:48.463Z,4.70
2019-03-20T16:43:52.165Z,7.83
2019-03-20T16:48:56.421Z,5.30
2019-03-20T16:54:00.126Z,6.60
2019-03-20T16:59:03.960Z,6.60
2019-03-20T17:04:07.691Z,6.27
2019-03-20T17:09:11.423Z,7.30
2019-03-20T17:14:15.398Z,7.60
2019-03-20T17:19:19.070Z,7.33
2019-03-20T17:24:22.805Z,6.73
2019-03-20T17:29:26.946Z,6.93
2019-03-20T17:34:31.534Z,6.57
2019-03-20T17:39:35.757Z,7.30
2019-03-20T17:44:39.810Z,7.00
2019-03-20T17:49:43.922Z,7.67
2019-03-20T17:54:47.869Z,8.10
2019-03-20T17:59:51.899Z,8.03
2019-03-20T18:04:55.586Z,8.03
2019-03-20T18:09:59.281Z,7.93
2019-03-20T18:15:03.204Z,8.37
2019-03-20T18:20:07.983Z,8.60
2019-03-20T18:25:12.110Z,8.67
2019-03-20T18:30:22.426Z,8.30
2019-03-20T18:35:26.191Z,8.67
2019-03-20T18:40:29.955Z,8.80
2019-03-20T18:45:33.728Z,8.40
2019-03-20T18:50:37.448Z,8.43
2019-03-20T18:55:41.349Z,8.90
2019-03-20T19:00:45.046Z,8.80
2019-03-20T19:06:00.907Z,9.27
2019-03-20T19:11:05.052Z,9.20
2019-03-20T19:16:09.394Z,8.90
2019-03-20T19:21:13.139Z,9.23
2019-03-20T19:26:16.849Z,9.60
2019-03-20T19:31:20.526Z,8.80
2019-03-20T19:36:24.519Z,8.90
2019-03-20T19:41:28.224Z,8.27
2019-03-20T19:46:31.897Z,9.20
2019-03-20T19:51:35.599Z,8.97
2019-03-20T19:56:39.290Z,9.30
2019-03-20T20:01:43.030Z,9.13
2019-03-20T20:06:47.141Z,9.73
2019-03-20T20:11:53.228Z,10.17
2019-03-20T20:16:57.418Z,9.67
2019-03-20T20:22:01.516Z,10.37
2019-03-20T20:27:05.520Z,10.63
2019-03-20T20:32:09.476Z,12.17
2019-03-20T20:37:13.827Z,12.37
2019-03-20T20:42:18.083Z,13.37
2019-03-20T20:47:22.166Z,12.67
2019-03-20T20:52:26.179Z,13.40
2019-03-20T20:57:30.565Z,13.23
2019-03-20T21:02:34.759Z,12.20
2019-03-20T21:07:40.004Z,12.57
2019-03-20T21:12:55.188Z,13.43
2019-03-20T21:18:15.740Z,13.53
2019-03-20T21:24:08.865Z,13.27
2019-03-20T21:29:49.983Z,13.40
2019-03-20T21:35:34.156Z,15.03
2019-03-20T21:41:00.593Z,16.43
2019-03-20T21:47:02.184Z,16.93
2019-03-20T21:52:06.407Z,17.80
2019-03-20T21:57:42.886Z,18.23
2019-03-20T22:02:47.461Z,18.63
2019-03-20T22:07:51.667Z,17.73
2019-03-20T22:13:18.077Z,18.00
2019-03-20T22:18:53.161Z,17.50
2019-03-20T22:24:38.306Z,17.57
2019-03-20T22:29:42.517Z,17.40
2019-03-20T22:35:17.267Z,17.50
2019-03-20T22:41:10.465Z,17.73
2019-03-20T22:46:46.459Z,18.63
2019-03-20T22:52:20.522Z,17.93
2019-03-20T22:58:13.311Z,18.53
2019-03-20T23:03:25.954Z,19.00
2019-03-20T23:08:30.195Z,18.97
2019-03-20T23:13:41.496Z,21.17
2019-03-20T23:18:40.595Z,19.57
2019-03-20T23:23:44.809Z,21.33
2019-03-20T23:28:49.010Z,20.73
2019-03-20T23:33:53.482Z,20.50
2019-03-20T23:38:57.693Z,21.43
2019-03-20T23:44:01.919Z,20.83
2019-03-20T23:49:12.649Z,21.57
2019-03-20T23:54:19.543Z,21.30
2019-03-20T23:59:23.745Z,22.10
